Time;durP1;ratioP1;P1;durP2;ratioP2;P2;SDS_P1;SDS_P2;PMS_P1;PMS_P2;Temp;Humidity;BMP_temperature;BMP_pressure;BME280_temperature;BME280_humidity;BME280_pressure;Samples;Min_cycle;Max_cycle;Signal;HPM_P1;HPM_P2
2022/05/26 00:01:11;;;;;;;1.08;0.60;;;;;;;17.09;64.66;99996.97;4958129;28;20066;-84
2022/05/26 00:03:39;;;;;;;2.33;0.73;;;;;;;17.12;64.65;100002.03;4958511;28;20031;-84
2022/05/26 00:06:06;;;;;;;2.65;0.70;;;;;;;17.12;65.10;100006.59;4942469;28;20023;-84
2022/05/26 00:08:32;;;;;;;1.83;0.60;;;;;;;17.10;64.62;100009.47;4958850;28;20031;-84
2022/05/26 00:10:58;;;;;;;1.75;0.80;;;;;;;17.14;64.53;99999.97;4941799;28;20031;-84
2022/05/26 00:13:23;;;;;;;1.23;0.57;;;;;;;17.16;65.00;99992.53;4938606;29;20027;-84
2022/05/26 00:15:49;;;;;;;1.90;0.50;;;;;;;17.15;64.21;100003.53;4938700;29;20050;-84
2022/05/26 00:18:15;;;;;;;1.73;0.60;;;;;;;17.10;64.77;100004.06;4938770;29;20019;-84
2022/05/26 00:20:40;;;;;;;2.55;0.70;;;;;;;17.14;64.96;100004.53;4923056;29;20023;-83
2022/05/26 00:23:05;;;;;;;1.50;0.52;;;;;;;17.13;65.56;100003.69;4954562;29;20179;-84
2022/05/26 00:25:31;;;;;;;0.73;0.55;;;;;;;17.11;64.94;100003.03;4938424;29;20146;-84
2022/05/26 00:27:56;;;;;;;2.33;0.50;;;;;;;17.14;65.27;99999.13;4938352;29;20031;-84
2022/05/26 00:30:22;;;;;;;3.53;0.47;;;;;;;17.14;64.58;99999.97;4952086;28;20065;-84
2022/05/26 00:32:48;;;;;;;1.73;0.70;;;;;;;17.14;64.30;100005.38;4957565;28;20033;-84
2022/05/26 00:35:15;;;;;;;1.13;0.63;;;;;;;17.12;64.85;100002.03;4957605;28;20027;-84
2022/05/26 00:37:40;;;;;;;0.68;0.50;;;;;;;17.08;65.09;99999.84;4941782;28;20030;-84
2022/05/26 00:40:08;;;;;;;1.42;0.60;;;;;;;17.12;65.41;100003.88;4941330;28;20022;-84
2022/05/26 00:42:33;;;;;;;1.67;0.60;;;;;;;17.13;64.99;100008.25;4957498;28;20284;-84
2022/05/26 00:44:59;;;;;;;1.48;0.50;;;;;;;17.12;64.58;100007.41;4957164;28;20049;-84
2022/05/26 00:47:27;;;;;;;2.17;0.60;;;;;;;17.11;65.38;100003.03;4957261;28;20027;-84
2022/05/26 00:50:21;;;;;;;1.77;0.60;;;;;;;17.07;65.64;100003.56;4941525;28;20080;-84
2022/05/26 00:52:50;;;;;;;0.85;0.50;;;;;;;17.10;66.31;100008.63;4941274;28;20074;-84
2022/05/26 00:55:20;;;;;;;1.95;0.63;;;;;;;17.09;65.46;100013.19;4941285;28;20019;-84
2022/05/26 00:57:52;;;;;;;1.90;0.70;;;;;;;17.10;65.42;100006.75;4957267;28;20058;-84
2022/05/26 01:00:24;;;;;;;1.30;0.50;;;;;;;17.11;65.35;100008.44;4957190;28;20031;-84
2022/05/26 01:03:03;;;;;;;1.05;0.70;;;;;;;17.15;66.66;100000.81;4956196;28;20078;-84
2022/05/26 01:05:33;;;;;;;1.90;0.70;;;;;;;17.11;66.69;100000.34;4940739;28;20054;-84
2022/05/26 01:07:59;;;;;;;1.17;0.60;;;;;;;17.07;66.66;100000.88;4940652;28;20116;-84
2022/05/26 01:10:25;;;;;;;2.97;0.75;;;;;;;17.04;66.80;100002.06;4940399;28;20066;-84
2022/05/26 01:12:50;;;;;;;1.02;0.73;;;;;;;17.07;67.07;100003.56;4940856;28;20489;-84
2022/05/26 01:15:20;;;;;;;1.65;0.77;;;;;;;17.10;66.42;100003.22;4956658;28;20022;-84
2022/05/26 01:18:23;;;;;;;0.70;0.70;;;;;;;17.09;66.25;100001.53;4956856;28;20046;-84
2022/05/26 01:20:59;;;;;;;1.67;0.70;;;;;;;17.14;66.71;100009.94;4956823;28;20023;-84
2022/05/26 01:23:51;;;;;;;1.30;0.60;;;;;;;17.12;66.67;100012.00;4940516;28;20030;-84
2022/05/26 01:26:27;;;;;;;1.30;0.70;;;;;;;17.09;66.27;100009.66;4956028;28;20382;-84
2022/05/26 01:29:08;;;;;;;1.15;0.60;;;;;;;17.14;66.45;100010.78;4940770;28;20029;-84
2022/05/26 01:31:45;;;;;;;2.40;0.60;;;;;;;17.14;66.57;100015.34;4956435;28;20034;-84
2022/05/26 01:34:10;;;;;;;2.20;0.68;;;;;;;17.12;67.35;100020.94;4940716;28;20037;-84
2022/05/26 01:36:46;;;;;;;0.93;0.70;;;;;;;17.06;66.49;100023.50;4956545;28;20114;-84
2022/05/26 01:39:22;;;;;;;1.40;0.68;;;;;;;17.05;66.91;100013.72;4940529;28;20030;-84
2022/05/26 01:42:00;;;;;;;2.60;0.70;;;;;;;17.02;67.81;100023.00;4939767;28;20108;-84
2022/05/26 01:44:29;;;;;;;2.08;0.70;;;;;;;17.14;66.84;100026.16;4937108;29;20035;-84
2022/05/26 01:46:59;;;;;;;1.35;0.80;;;;;;;17.06;67.28;100029.75;4921336;29;20034;-84
2022/05/26 01:49:40;;;;;;;2.30;0.90;;;;;;;17.04;67.10;100014.75;4937195;29;20035;-83
2022/05/26 01:52:18;;;;;;;2.13;1.10;;;;;;;17.12;67.97;100018.22;4921445;29;20101;-84
2022/05/26 01:54:53;;;;;;;2.40;1.10;;;;;;;17.09;66.80;100034.81;4921460;29;20027;-84
2022/05/26 01:57:21;;;;;;;3.83;1.30;;;;;;;17.05;67.00;100014.56;4921445;29;20275;-84
2022/05/26 01:59:49;;;;;;;2.15;1.00;;;;;;;17.07;67.04;100020.63;4954691;29;20027;-84
2022/05/26 02:02:26;;;;;;;3.55;1.30;;;;;;;17.07;68.07;100017.94;4921201;29;20047;-84
2022/05/26 02:04:58;;;;;;;2.72;1.30;;;;;;;17.00;68.23;100019.63;4921158;29;20031;-84
2022/05/26 02:07:35;;;;;;;1.75;1.00;;;;;;;16.96;68.10;100021.00;4937331;28;20024;-84
2022/05/26 02:10:04;;;;;;;3.08;1.00;;;;;;;16.97;68.33;100022.69;4940171;28;20026;-85
2022/05/26 02:12:33;;;;;;;2.22;1.20;;;;;;;17.00;68.04;100030.44;4955933;28;20038;-84
2022/05/26 02:15:18;;;;;;;2.70;1.30;;;;;;;16.99;68.18;100034.16;4940112;28;20113;-84
2022/05/26 02:17:50;;;;;;;2.65;1.23;;;;;;;17.00;68.03;100030.44;4956239;28;20023;-84
2022/05/26 02:20:28;;;;;;;2.20;1.30;;;;;;;16.96;67.99;100026.41;4956488;28;20038;-84
2022/05/26 02:22:58;;;;;;;3.05;1.15;;;;;;;16.97;68.25;100025.38;4943260;28;20110;-84
2022/05/26 02:25:25;;;;;;;2.72;1.05;;;;;;;16.94;68.67;100021.19;4943761;28;20054;-84
2022/05/26 02:27:55;;;;;;;3.38;1.25;;;;;;;17.01;69.19;100024.00;4943723;28;20033;-84
2022/05/26 02:30:23;;;;;;;2.95;1.23;;;;;;;17.05;68.48;100027.22;4943169;28;20378;-84
2022/05/26 02:32:50;;;;;;;3.42;1.40;;;;;;;16.92;69.15;100030.47;4959560;28;20038;-84
2022/05/26 02:35:17;;;;;;;2.40;1.27;;;;;;;16.90;69.06;100033.38;4944070;28;20376;-84
2022/05/26 02:37:45;;;;;;;3.22;1.40;;;;;;;16.90;69.50;100027.13;4943903;28;20477;-84
2022/05/26 02:40:11;;;;;;;2.92;1.38;;;;;;;17.01;68.88;100037.53;4959714;28;20085;-84
2022/05/26 02:42:44;;;;;;;4.13;1.50;;;;;;;16.89;68.97;100028.97;4943676;28;20053;-84
2022/05/26 02:45:09;;;;;;;2.85;1.40;;;;;;;16.92;68.68;100035.88;4943740;28;20050;-85
2022/05/26 02:47:57;;;;;;;3.75;1.40;;;;;;;16.94;68.72;100048.19;4959562;28;20026;-84
2022/05/26 02:50:37;;;;;;;3.20;1.47;;;;;;;16.98;68.78;100041.41;4943713;28;20031;-84
2022/05/26 02:53:09;;;;;;;2.53;1.35;;;;;;;16.95;69.39;100049.03;4976790;28;20119;-84
2022/05/26 02:56:17;;;;;;;3.42;1.52;;;;;;;16.94;69.47;100040.09;4943466;28;20026;-84
2022/05/26 02:59:07;;;;;;;3.45;1.38;;;;;;;16.88;69.40;100048.91;4939636;28;20165;-84
2022/05/26 03:01:41;;;;;;;3.92;1.50;;;;;;;16.83;69.16;100045.06;4959446;28;20042;-84
2022/05/26 03:04:12;;;;;;;3.95;1.60;;;;;;;16.94;69.25;100050.91;4959348;28;20023;-84
2022/05/26 03:06:49;;;;;;;3.72;1.52;;;;;;;16.92;69.45;100052.09;4942939;28;20031;-84
2022/05/26 03:09:15;;;;;;;2.05;1.33;;;;;;;16.90;69.14;100051.44;4959204;28;20054;-84
2022/05/26 03:11:44;;;;;;;4.90;1.60;;;;;;;16.87;70.09;100051.78;4959109;28;20030;-84
2022/05/26 03:14:09;;;;;;;4.25;1.73;;;;;;;16.81;69.87;100052.50;4942979;28;20034;-84
2022/05/26 03:16:35;;;;;;;5.00;2.00;;;;;;;16.82;69.48;100052.31;4959008;28;20097;-84
2022/05/26 03:19:00;;;;;;;2.95;1.67;;;;;;;16.78;69.79;100050.16;4958896;28;20058;-84
2022/05/26 03:21:26;;;;;;;3.65;1.98;;;;;;;16.82;69.24;100051.47;4959060;28;20470;-84
2022/05/26 03:23:51;;;;;;;3.85;1.80;;;;;;;16.89;69.49;100065.97;4958991;28;20039;-84
2022/05/26 03:26:17;;;;;;;5.05;1.67;;;;;;;16.89;70.24;100064.09;4958889;28;20023;-84
2022/05/26 03:28:42;;;;;;;3.97;1.90;;;;;;;16.79;70.26;100065.34;4958913;28;20027;-84
2022/05/26 03:31:08;;;;;;;4.55;1.67;;;;;;;16.75;69.92;100061.31;4958660;28;20031;-84
2022/05/26 03:40:46;;;;;;;5.05;2.00;;;;;;;16.79;69.96;100066.19;4958105;28;20385;-84
2022/05/26 03:41:46;;;;;;;4.95;2.20;;;;;;;16.81;70.32;100068.69;4961326;28;20069;-84
2022/05/26 03:44:12;;;;;;;3.60;1.88;;;;;;;16.78;70.68;100079.84;4958364;28;20467;-85
2022/05/26 03:46:38;;;;;;;2.65;1.65;;;;;;;16.78;70.67;100079.84;4958378;28;20054;-84
2022/05/26 03:49:04;;;;;;;2.70;1.80;;;;;;;16.79;70.19;100079.69;4958736;28;20401;-84
2022/05/26 03:51:29;;;;;;;4.00;1.73;;;;;;;16.82;70.06;100073.94;4942470;28;20042;-84
2022/05/26 03:53:54;;;;;;;5.45;2.30;;;;;;;16.82;70.27;100075.78;4958491;28;20026;-84
2022/05/26 03:56:20;;;;;;;4.00;2.03;;;;;;;16.77;70.78;100084.41;4958486;28;20101;-84
2022/05/26 03:58:45;;;;;;;5.28;1.88;;;;;;;16.80;70.45;100080.53;4958083;28;20462;-84
2022/05/26 04:01:10;;;;;;;3.90;1.88;;;;;;;16.79;69.91;100081.53;4942147;28;20037;-84
2022/05/26 04:03:36;;;;;;;3.45;2.10;;;;;;;16.73;70.58;100096.59;4958359;28;20034;-84
2022/05/26 04:06:01;;;;;;;3.72;2.00;;;;;;;16.75;70.62;100093.72;4958055;28;20026;-84
2022/05/26 04:08:26;;;;;;;3.95;1.88;;;;;;;16.73;71.24;100102.00;4958136;28;20182;-84
2022/05/26 04:10:52;;;;;;;4.50;2.00;;;;;;;16.70;71.13;100112.31;4957957;28;20144;-84
2022/05/26 04:13:17;;;;;;;3.38;1.90;;;;;;;16.71;71.38;100106.72;4957834;28;20477;-84
2022/05/26 04:15:43;;;;;;;4.88;2.20;;;;;;;16.72;70.90;100105.72;4941849;28;20026;-84
2022/05/26 04:18:08;;;;;;;4.95;2.25;;;;;;;16.71;70.73;100109.44;4941002;28;20096;-84
2022/05/26 04:20:34;;;;;;;4.07;2.35;;;;;;;16.69;70.47;100108.75;4942072;28;20023;-84
2022/05/26 04:22:59;;;;;;;4.55;1.98;;;;;;;16.72;71.51;100107.56;4941715;28;20046;-84
2022/05/26 04:25:25;;;;;;;3.08;2.00;;;;;;;16.72;71.07;100108.41;4957454;28;20094;-84
2022/05/26 04:27:53;;;;;;;4.70;1.90;;;;;;;16.71;71.35;100116.69;4957197;28;20031;-84
2022/05/26 04:30:19;;;;;;;4.05;1.98;;;;;;;16.72;72.00;100119.22;4941773;28;20019;-84
2022/05/26 04:32:44;;;;;;;3.40;2.00;;;;;;;16.73;71.04;100118.19;4941212;28;20023;-84
2022/05/26 04:35:10;;;;;;;3.95;2.10;;;;;;;16.77;71.44;100119.53;4957360;28;20082;-84
2022/05/26 04:37:36;;;;;;;3.25;1.70;;;;;;;16.80;71.49;100118.34;4941006;28;20050;-84
2022/05/26 04:40:02;;;;;;;3.78;2.03;;;;;;;16.73;71.83;100129.00;4941145;28;20053;-84
2022/05/26 04:42:29;;;;;;;5.97;2.47;;;;;;;16.65;71.57;100126.28;4940911;28;20034;-84
2022/05/26 04:44:54;;;;;;;5.25;2.47;;;;;;;16.66;71.67;100130.72;4951670;28;20023;-84
2022/05/26 04:47:20;;;;;;;4.18;2.15;;;;;;;16.63;72.08;100131.88;4941005;28;20428;-84
2022/05/26 04:49:46;;;;;;;4.95;2.22;;;;;;;16.64;71.27;100124.59;4937514;28;20086;-83
2022/05/26 04:52:15;;;;;;;4.47;2.00;;;;;;;16.70;71.47;100128.50;4932533;28;20042;-84
2022/05/26 04:54:42;;;;;;;3.47;1.63;;;;;;;16.83;71.43;100128.78;4939128;28;20023;-84
2022/05/26 04:57:08;;;;;;;6.13;2.10;;;;;;;16.77;71.33;100138.44;4957638;28;20019;-84
2022/05/26 04:59:34;;;;;;;3.35;2.00;;;;;;;16.75;71.29;100134.22;4957002;28;20496;-84
2022/05/26 05:02:00;;;;;;;4.60;2.28;;;;;;;16.76;71.65;100139.44;4956291;28;20035;-84
2022/05/26 05:04:26;;;;;;;4.10;2.47;;;;;;;16.70;71.68;100142.00;4956326;28;20120;-84
2022/05/26 05:07:00;;;;;;;5.05;2.15;;;;;;;16.74;71.73;100149.59;5064615;27;20909;-84
2022/05/26 05:09:25;;;;;;;6.05;2.25;;;;;;;16.68;71.68;100143.03;5060861;28;20112;-84
2022/05/26 05:11:51;;;;;;;4.57;2.35;;;;;;;16.69;71.27;100143.88;5043226;28;20078;-83
2022/05/26 05:14:17;;;;;;;4.55;2.17;;;;;;;16.74;71.33;100146.03;5051542;28;20024;-83
2022/05/26 05:16:43;;;;;;;5.30;2.45;;;;;;;16.72;72.01;100151.63;5051521;28;20024;-83
2022/05/26 05:19:10;;;;;;;5.93;2.58;;;;;;;16.72;72.16;100148.06;5049535;28;20033;-83
2022/05/26 05:21:39;;;;;;;6.05;2.60;;;;;;;16.70;71.66;100152.81;5041577;28;20108;-83
2022/05/26 05:24:16;;;;;;;6.15;2.83;;;;;;;16.73;71.55;100152.47;5032547;28;20040;-83
2022/05/26 05:26:43;;;;;;;6.88;2.65;;;;;;;16.71;71.85;100162.59;5049065;28;20036;-83
2022/05/26 05:29:11;;;;;;;5.28;2.70;;;;;;;16.68;72.15;100161.94;5049406;28;20459;-83
2022/05/26 05:31:52;;;;;;;6.13;2.40;;;;;;;16.68;72.72;100167.34;5047059;28;20082;-83
2022/05/26 05:34:23;;;;;;;4.97;2.35;;;;;;;16.61;72.83;100168.16;5052396;28;20028;-82
2022/05/26 05:36:48;;;;;;;3.97;2.10;;;;;;;16.65;72.58;100173.06;5069249;28;20383;-83
2022/05/26 05:39:14;;;;;;;5.60;2.95;;;;;;;16.65;72.28;100169.50;5052166;28;20017;-83
2022/05/26 05:41:39;;;;;;;6.47;2.88;;;;;;;16.64;72.59;100171.34;5051955;28;20067;-83
2022/05/26 05:44:05;;;;;;;5.05;2.50;;;;;;;16.66;72.51;100177.47;5068810;28;20028;-82
2022/05/26 05:46:34;;;;;;;6.68;2.83;;;;;;;16.66;72.75;100169.34;5051915;28;20028;-83
2022/05/26 05:49:04;;;;;;;8.07;2.75;;;;;;;16.67;73.77;100173.75;5052504;28;20092;-82
2022/05/26 05:51:32;;;;;;;4.95;2.38;;;;;;;16.72;72.86;100183.19;5052049;28;20048;-83
2022/05/26 05:53:58;;;;;;;6.75;2.42;;;;;;;16.73;72.66;100180.31;5048022;28;20021;-83
2022/05/26 05:56:23;;;;;;;5.15;2.47;;;;;;;16.83;72.29;100182.81;5048188;28;20095;-83
2022/05/26 05:58:50;;;;;;;6.47;2.58;;;;;;;16.80;73.20;100180.47;5040938;28;20060;-83
2022/05/26 06:01:15;;;;;;;4.53;2.45;;;;;;;16.79;72.56;100184.19;5032003;28;20025;-83
2022/05/26 06:03:41;;;;;;;6.03;2.60;;;;;;;16.84;72.51;100185.34;5031954;28;20078;-83
2022/05/26 06:06:09;;;;;;;6.72;2.70;;;;;;;16.85;72.71;100188.91;5051421;28;20124;-83
2022/05/26 06:08:34;;;;;;;5.93;2.72;;;;;;;16.85;72.77;100197.00;5055207;28;20035;-82
2022/05/26 06:11:00;;;;;;;6.30;2.97;;;;;;;16.83;72.54;100193.63;5051389;28;20058;-83
2022/05/26 06:13:26;;;;;;;5.95;2.83;;;;;;;16.87;72.69;100198.50;5067981;28;20036;-83
2022/05/26 06:15:52;;;;;;;8.65;3.53;;;;;;;16.84;72.93;100200.72;5068006;28;20036;-82
2022/05/26 06:18:17;;;;;;;6.55;3.35;;;;;;;16.81;72.51;100201.91;5052950;28;20033;-83
2022/05/26 06:20:43;;;;;;;8.98;2.58;;;;;;;16.83;72.69;100201.72;5034825;28;20038;-83
2022/05/26 06:23:08;;;;;;;6.75;3.03;;;;;;;16.86;72.88;100213.03;5054752;28;20028;-83
2022/05/26 06:25:34;;;;;;;5.30;2.50;;;;;;;16.87;72.49;100213.88;5046754;28;20068;-83
2022/05/26 06:31:03;;;;;;;6.45;3.05;;;;;;;16.84;72.18;100225.03;5022372;28;20072;-83
2022/05/26 06:38:57;;;;;;;6.22;2.97;;;;;;;16.95;72.25;100230.91;5034971;28;20060;-83
2022/05/26 06:44:06;;;;;;;7.68;3.50;;;;;;;16.91;71.92;100231.44;5035691;28;20493;-83
2022/05/26 06:46:32;;;;;;;6.35;3.30;;;;;;;16.94;72.19;100240.03;5017701;28;20029;-82
2022/05/26 06:48:57;;;;;;;8.52;3.03;;;;;;;16.95;72.28;100243.56;5017854;28;20025;-83
2022/05/26 06:51:26;;;;;;;9.18;3.80;;;;;;;16.93;72.00;100246.44;5034162;28;20029;-83
2022/05/26 06:53:52;;;;;;;8.43;3.38;;;;;;;16.93;72.25;100242.91;5034282;28;20430;-83
2022/05/26 06:56:17;;;;;;;7.53;3.28;;;;;;;16.96;72.32;100261.47;5034217;28;20151;-83
2022/05/26 06:58:42;;;;;;;7.82;3.33;;;;;;;16.92;72.57;100257.44;5034354;28;20464;-83
2022/05/26 07:01:08;;;;;;;7.10;3.83;;;;;;;16.92;71.85;100262.84;5026293;28;20558;-83
2022/05/26 07:03:34;;;;;;;5.28;2.88;;;;;;;16.93;72.40;100264.53;5032039;28;20043;-83
2022/05/26 07:05:59;;;;;;;6.57;3.25;;;;;;;16.90;71.54;100262.16;5036863;28;20088;-83
2022/05/26 07:08:25;;;;;;;6.75;3.00;;;;;;;16.94;71.54;100269.75;5026849;28;20558;-83
2022/05/26 07:10:52;;;;;;;5.18;3.30;;;;;;;16.99;71.82;100267.38;5049289;28;20068;-83
2022/05/26 07:13:18;;;;;;;8.18;3.72;;;;;;;16.98;71.96;100271.09;5016600;28;20116;-83
2022/05/26 07:15:43;;;;;;;6.68;3.28;;;;;;;17.00;71.46;100279.88;5034570;28;20419;-82
2022/05/26 07:18:09;;;;;;;6.88;3.50;;;;;;;17.02;71.23;100276.16;5030591;28;20075;-83
2022/05/26 07:20:36;;;;;;;9.45;3.97;;;;;;;16.99;71.53;100280.03;5022673;28;20029;-83
2022/05/26 07:23:03;;;;;;;8.47;3.77;;;;;;;16.98;71.16;100276.50;5028935;28;20050;-83
2022/05/26 07:25:28;;;;;;;7.55;3.13;;;;;;;17.00;71.09;100281.72;5036046;28;20033;-83
2022/05/26 07:27:53;;;;;;;6.93;3.35;;;;;;;17.01;71.27;100280.72;5048200;28;20076;-83
2022/05/26 07:30:19;;;;;;;5.47;3.40;;;;;;;17.06;70.90;100272.13;5039378;28;20017;-83
2022/05/26 07:32:44;;;;;;;8.45;3.58;;;;;;;17.11;70.95;100285.97;5030654;28;20456;-83
2022/05/26 07:35:09;;;;;;;7.45;3.55;;;;;;;17.04;71.64;100293.06;5032967;28;20030;-83
2022/05/26 07:43:05;;;;;;;8.02;3.40;;;;;;;17.03;71.43;100296.75;5034734;28;20497;-83
2022/05/26 07:45:30;;;;;;;7.13;3.03;;;;;;;17.07;71.03;100307.09;5034329;28;20068;-82
2022/05/26 07:47:55;;;;;;;6.90;3.10;;;;;;;17.10;69.86;100295.09;5047901;28;20061;-82
2022/05/26 07:50:21;;;;;;;7.10;3.38;;;;;;;17.10;69.91;100295.09;5048784;28;20462;-82
2022/05/26 07:52:48;;;;;;;8.48;3.10;;;;;;;17.11;70.15;100292.22;5031876;28;20460;-83
2022/05/26 07:55:13;;;;;;;6.88;3.13;;;;;;;17.15;70.70;100298.13;5031998;28;20034;-83
2022/05/26 07:57:39;;;;;;;6.63;3.10;;;;;;;17.19;70.02;100299.44;5031937;28;20361;-83
2022/05/26 08:00:07;;;;;;;6.43;3.17;;;;;;;17.15;69.45;100295.41;5056771;28;20020;-83
2022/05/26 08:02:32;;;;;;;6.22;3.13;;;;;;;17.12;69.10;100293.06;5044269;28;20489;-83
2022/05/26 08:04:57;;;;;;;6.95;3.13;;;;;;;17.17;70.24;100293.38;5038054;28;20052;-83
2022/05/26 08:07:23;;;;;;;7.03;2.70;;;;;;;17.26;70.06;100298.59;5031778;28;20032;-83
2022/05/26 08:09:48;;;;;;;6.07;3.08;;;;;;;17.28;69.97;100293.84;5045818;28;20024;-83
2022/05/26 08:12:14;;;;;;;4.93;2.97;;;;;;;17.32;69.58;100291.66;5031373;28;20116;-83
2022/05/26 08:14:41;;;;;;;8.73;3.20;;;;;;;17.29;69.81;100300.09;5034370;28;20051;-83
2022/05/26 08:17:07;;;;;;;7.32;3.30;;;;;;;17.23;70.54;100300.78;5022215;28;20374;-83
2022/05/26 08:19:33;;;;;;;5.78;2.80;;;;;;;17.21;70.13;100302.81;5034159;28;20017;-83
2022/05/26 08:21:58;;;;;;;10.55;3.45;;;;;;;17.25;69.69;100309.56;5027265;28;20071;-83
2022/05/26 08:24:24;;;;;;;5.78;3.10;;;;;;;17.25;70.04;100310.41;5042591;28;20036;-83
2022/05/26 08:26:50;;;;;;;8.05;3.28;;;;;;;17.23;69.99;100317.84;5035325;28;20033;-84
2022/05/26 08:29:16;;;;;;;7.13;3.15;;;;;;;17.27;70.29;100312.94;5015723;28;20053;-84
2022/05/26 08:31:41;;;;;;;7.72;3.10;;;;;;;17.29;70.29;100317.16;5031962;28;20083;-84
2022/05/26 08:34:07;;;;;;;6.63;2.88;;;;;;;17.26;69.66;100312.09;5056033;28;20133;-84
2022/05/26 08:36:33;;;;;;;5.80;3.00;;;;;;;17.25;69.90;100317.69;5035705;28;20064;-84
2022/05/26 08:38:58;;;;;;;5.03;2.75;;;;;;;17.27;70.00;100332.72;5032410;28;20022;-84
2022/05/26 08:41:27;;;;;;;5.78;2.75;;;;;;;17.29;69.35;100329.84;5050192;28;20493;-84
2022/05/26 08:44:03;;;;;;;7.07;2.80;;;;;;;17.28;70.03;100334.41;5039138;28;20574;-84
2022/05/26 08:46:37;;;;;;;5.68;2.63;;;;;;;17.37;69.81;100337.94;5032089;28;20030;-84
2022/05/26 08:49:09;;;;;;;5.80;2.58;;;;;;;17.39;68.81;100340.47;5032316;28;20029;-84
2022/05/26 08:51:44;;;;;;;7.13;2.95;;;;;;;17.34;69.14;100349.09;5039067;28;20107;-86
2022/05/26 08:54:26;;;;;;;3.47;2.22;;;;;;;17.35;69.82;100347.22;5035739;28;20056;-85
2022/05/26 08:56:55;;;;;;;6.80;2.60;;;;;;;17.34;68.88;100343.69;5038564;28;20031;-85
2022/05/26 08:59:22;;;;;;;5.93;2.63;;;;;;;17.33;69.15;100351.97;5023014;28;20073;-85
2022/05/26 09:01:48;;;;;;;7.78;2.78;;;;;;;17.31;69.15;100347.56;5027107;28;20112;-85
2022/05/26 09:04:13;;;;;;;4.90;2.30;;;;;;;17.35;68.35;100339.13;5044146;28;20594;-85
2022/05/26 09:15:09;;;;;;;6.50;2.65;;;;;;;17.46;68.59;100357.69;5056014;28;20090;-84
2022/05/26 09:17:35;;;;;;;6.82;2.50;;;;;;;17.40;67.72;100367.31;5031734;28;20391;-85
2022/05/26 09:20:04;;;;;;;7.65;2.63;;;;;;;17.37;68.52;100359.56;5023772;28;20032;-85
2022/05/26 09:22:47;;;;;;;3.63;2.20;;;;;;;17.36;68.46;100359.72;5030333;28;20024;-84
2022/05/26 09:25:32;;;;;;;7.00;2.40;;;;;;;17.34;68.67;100367.16;5024329;28;20086;-85
2022/05/26 09:27:57;;;;;;;7.03;2.38;;;;;;;17.37;68.73;100364.97;5032143;28;20507;-85
2022/05/26 09:30:23;;;;;;;6.72;2.70;;;;;;;17.38;68.72;100368.53;5033381;28;20025;-85
2022/05/26 09:32:49;;;;;;;4.30;2.10;;;;;;;17.44;68.52;100367.81;5050235;28;20600;-85
2022/05/26 09:35:34;;;;;;;6.25;2.65;;;;;;;17.51;68.16;100380.50;5067064;28;20108;-85
2022/05/26 09:38:02;;;;;;;5.03;2.00;;;;;;;17.54;68.31;100373.91;5044969;28;20071;-85
2022/05/26 09:40:31;;;;;;;9.20;2.55;;;;;;;17.53;67.31;100369.53;5055530;28;20075;-85
2022/05/26 09:43:06;;;;;;;6.25;2.50;;;;;;;17.47;67.11;100365.63;5046843;28;20028;-86
2022/05/26 09:45:36;;;;;;;4.45;2.50;;;;;;;17.48;66.92;100374.56;5048927;28;20033;-85
2022/05/26 09:48:01;;;;;;;6.50;2.00;;;;;;;17.50;67.60;100377.94;5040063;28;20475;-86
2022/05/26 09:50:33;;;;;;;5.15;2.30;;;;;;;17.58;68.19;100381.50;5050376;28;20045;-85
2022/05/26 09:52:59;;;;;;;4.78;2.30;;;;;;;17.61;67.49;100383.03;5045271;28;20028;-85
2022/05/26 09:55:28;;;;;;;3.45;2.13;;;;;;;17.63;67.73;100384.53;5024136;28;20045;-84
2022/05/26 09:58:12;;;;;;;6.32;2.03;;;;;;;17.62;68.35;100396.38;5036977;28;20021;-85
2022/05/26 10:00:43;;;;;;;3.53;1.80;;;;;;;17.65;67.29;100387.06;5024997;28;20032;-84
2022/05/26 10:03:47;;;;;;;5.35;2.00;;;;;;;17.67;66.06;100389.63;5043038;28;20091;-84
2022/05/26 10:06:23;;;;;;;5.05;2.15;;;;;;;17.71;66.86;100390.97;5021131;28;20120;-85
2022/05/26 10:09:02;;;;;;;5.30;2.00;;;;;;;17.63;65.10;100389.09;5022934;28;20043;-85
2022/05/26 10:11:55;;;;;;;4.65;2.17;;;;;;;17.65;65.92;100400.59;5031748;28;20032;-85
2022/05/26 10:14:33;;;;;;;5.32;1.90;;;;;;;17.68;66.18;100394.03;5040139;28;20602;-85
2022/05/26 10:17:02;;;;;;;4.33;2.30;;;;;;;17.66;65.54;100387.91;5044683;28;20501;-85
2022/05/26 10:19:49;;;;;;;4.22;1.85;;;;;;;17.71;65.66;100394.53;5042692;28;20307;-85
2022/05/26 10:22:36;;;;;;;3.88;1.77;;;;;;;17.74;66.50;100399.59;5041729;28;20075;-87
2022/05/26 10:25:44;;;;;;;5.60;1.77;;;;;;;17.73;64.71;100395.19;5042530;28;20033;-76
2022/05/26 10:28:24;;;;;;;3.33;1.70;;;;;;;17.72;64.81;100396.22;5036027;28;20440;-79
2022/05/26 10:31:01;;;;;;;7.65;1.95;;;;;;;17.72;63.89;100403.47;5044248;28;20284;-79
2022/05/26 10:33:50;;;;;;;4.80;1.70;;;;;;;17.71;65.26;100390.97;5046746;28;20031;-78
2022/05/26 10:36:40;;;;;;;;;;;;;;;17.76;65.74;100388.59;5033481;28;20055;-82
2022/05/26 10:39:21;;;;;;;4.15;2.00;;;;;;;17.79;64.43;100394.50;5027135;28;20444;-78
2022/05/26 10:41:50;;;;;;;7.13;2.20;;;;;;;17.77;63.25;100393.00;5046247;28;20022;-78
2022/05/26 10:44:29;;;;;;;3.35;1.95;;;;;;;17.75;63.03;100400.44;5023916;28;20151;-78
2022/05/26 10:47:03;;;;;;;4.80;2.00;;;;;;;17.76;62.48;100394.84;5044512;28;20036;-80
2022/05/26 10:49:36;;;;;;;5.18;1.92;;;;;;;17.79;63.56;100393.66;5029464;28;20475;-75
2022/05/26 10:52:13;;;;;;;4.55;1.80;;;;;;;17.83;63.11;100401.25;5040541;28;20488;-85
2022/05/26 10:54:52;;;;;;;5.88;2.17;;;;;;;17.88;64.11;100406.97;5033559;28;20030;-82
2022/05/26 10:57:25;;;;;;;4.57;2.08;;;;;;;17.88;64.67;100400.72;5035330;28;20537;-79
2022/05/26 11:00:02;;;;;;;6.80;3.10;;;;;;;17.87;64.09;100399.03;5039123;28;20360;-79
2022/05/26 11:02:49;;;;;;;4.18;2.80;;;;;;;17.90;64.51;100412.22;5042981;28;20471;-79
2022/05/26 11:05:30;;;;;;;3.85;2.20;;;;;;;17.92;65.61;100405.63;5034765;28;20087;-79
2022/05/26 11:08:04;;;;;;;6.45;2.80;;;;;;;17.94;63.88;100411.69;5043324;28;20593;-80
2022/05/26 11:10:42;;;;;;;8.00;3.00;;;;;;;17.96;64.64;100407.97;5026207;28;20104;-76
2022/05/26 11:13:32;;;;;;;4.20;2.47;;;;;;;17.97;65.16;100420.47;5048688;28;20029;-76
2022/05/26 11:19:13;;;;;;;5.65;2.60;;;;;;;18.05;62.50;100404.25;5046436;28;20035;-83
2022/05/26 11:21:38;;;;;;;6.35;3.20;;;;;;;18.06;63.32;100405.94;5034416;28;20075;-76
2022/05/26 11:24:08;;;;;;;2.78;2.50;;;;;;;18.07;64.84;100408.47;5037768;28;20033;-79
2022/05/26 11:26:47;;;;;;;5.10;3.38;;;;;;;18.10;63.74;100408.09;5044175;28;20033;-77
2022/05/26 11:29:22;;;;;;;5.78;3.08;;;;;;;18.09;63.37;100400.16;5052365;28;20025;-81
2022/05/26 11:37:28;;;;;;;7.65;3.92;;;;;;;18.21;64.42;100396.03;5033919;28;20032;-80
2022/05/26 11:40:14;;;;;;;6.03;3.15;;;;;;;18.21;64.65;100398.75;5032676;28;20026;-82
2022/05/26 11:42:50;;;;;;;6.55;2.83;;;;;;;18.19;64.54;100395.38;5047783;28;20029;-78
2022/05/26 11:45:42;;;;;;;5.82;2.72;;;;;;;18.20;61.48;100391.66;5033593;28;20056;-79
2022/05/26 11:48:29;;;;;;;5.40;2.72;;;;;;;18.23;63.45;100397.56;5040753;28;20109;-81
2022/05/26 11:50:57;;;;;;;5.13;2.53;;;;;;;18.26;61.74;100393.66;5038216;28;20422;-80
2022/05/26 11:53:46;;;;;;;3.83;2.50;;;;;;;18.26;63.60;100390.94;5039460;28;20025;-80
2022/05/26 11:56:23;;;;;;;5.28;2.60;;;;;;;18.30;63.02;100396.84;5038188;28;20356;-81
2022/05/26 11:59:17;;;;;;;3.95;2.38;;;;;;;18.34;64.60;100399.03;5051231;28;20024;-82
2022/05/26 12:01:47;;;;;;;5.43;2.47;;;;;;;18.37;65.63;100397.81;5045684;28;20025;-76
2022/05/26 12:04:39;;;;;;;4.13;2.50;;;;;;;18.36;64.81;100393.41;5044370;28;20053;-79
2022/05/26 12:07:23;;;;;;;6.05;2.42;;;;;;;18.33;62.37;100391.06;5020641;28;20416;-79
2022/05/26 12:09:51;;;;;;;5.22;2.40;;;;;;;18.34;64.16;100393.59;5043669;28;20036;-79
2022/05/26 12:12:16;;;;;;;3.95;2.20;;;;;;;18.37;65.20;100387.00;5044685;28;20021;-78
2022/05/26 12:14:47;;;;;;;2.63;2.10;;;;;;;18.39;65.06;100387.66;5051932;28;20029;-78
2022/05/26 12:17:33;;;;;;;3.55;1.90;;;;;;;18.41;65.20;100389.16;5035898;28;20272;-80
2022/05/26 12:20:05;;;;;;;4.20;1.90;;;;;;;18.48;63.49;100387.47;5044219;28;20036;-79
2022/05/26 12:22:49;;;;;;;5.55;1.63;;;;;;;18.57;62.36;100390.94;5038098;28;20028;-75